sensor_id;sensor_type;location;lat;lon;timestamp;P1;durP1;ratioP1;P2;durP2;ratioP2
19026;SDS011;9646;52.034;5.554;2023-08-07T00:02:09;5.43;;;1.40;;
19026;SDS011;9646;52.034;5.554;2023-08-07T00:04:36;4.82;;;1.58;;
19026;SDS011;9646;52.034;5.554;2023-08-07T00:07:04;3.97;;;1.40;;
19026;SDS011;9646;52.034;5.554;2023-08-07T00:09:31;3.95;;;1.70;;
19026;SDS011;9646;52.034;5.554;2023-08-07T00:11:58;4.70;;;1.80;;
19026;SDS011;9646;52.034;5.554;2023-08-07T00:14:26;5.53;;;1.55;;
19026;SDS011;9646;52.034;5.554;2023-08-07T00:16:53;5.93;;;1.70;;
19026;SDS011;9646;52.034;5.554;2023-08-07T00:19:20;10.20;;;2.22;;
19026;SDS011;9646;52.034;5.554;2023-08-07T00:21:48;7.97;;;2.08;;
19026;SDS011;9646;52.034;5.554;2023-08-07T00:24:15;6.35;;;2.03;;
19026;SDS011;9646;52.034;5.554;2023-08-07T00:26:42;6.93;;;1.98;;
19026;SDS011;9646;52.034;5.554;2023-08-07T00:29:09;5.65;;;1.95;;
19026;SDS011;9646;52.034;5.554;2023-08-07T00:31:37;7.75;;;1.90;;
19026;SDS011;9646;52.034;5.554;2023-08-07T00:34:04;9.45;;;2.75;;
19026;SDS011;9646;52.034;5.554;2023-08-07T00:36:32;8.77;;;2.38;;
19026;SDS011;9646;52.034;5.554;2023-08-07T00:38:59;6.25;;;2.13;;
19026;SDS011;9646;52.034;5.554;2023-08-07T00:41:28;8.10;;;2.53;;
19026;SDS011;9646;52.034;5.554;2023-08-07T00:43:55;5.07;;;1.90;;
19026;SDS011;9646;52.034;5.554;2023-08-07T00:46:22;8.75;;;2.33;;
19026;SDS011;9646;52.034;5.554;2023-08-07T00:48:51;12.38;;;3.30;;
19026;SDS011;9646;52.034;5.554;2023-08-07T00:51:19;6.80;;;2.80;;
19026;SDS011;9646;52.034;5.554;2023-08-07T00:53:46;9.20;;;2.55;;
19026;SDS011;9646;52.034;5.554;2023-08-07T00:56:14;7.22;;;2.25;;
19026;SDS011;9646;52.034;5.554;2023-08-07T00:58:42;7.82;;;1.98;;
19026;SDS011;9646;52.034;5.554;2023-08-07T01:01:10;4.60;;;1.98;;
19026;SDS011;9646;52.034;5.554;2023-08-07T01:03:37;5.60;;;2.33;;
19026;SDS011;9646;52.034;5.554;2023-08-07T01:06:06;7.22;;;1.98;;
19026;SDS011;9646;52.034;5.554;2023-08-07T01:08:33;8.95;;;2.75;;
19026;SDS011;9646;52.034;5.554;2023-08-07T01:11:09;5.82;;;2.15;;
19026;SDS011;9646;52.034;5.554;2023-08-07T01:13:42;5.43;;;1.92;;
19026;SDS011;9646;52.034;5.554;2023-08-07T01:16:13;4.95;;;1.75;;
19026;SDS011;9646;52.034;5.554;2023-08-07T01:18:44;7.20;;;2.00;;
19026;SDS011;9646;52.034;5.554;2023-08-07T01:21:18;8.27;;;2.15;;
19026;SDS011;9646;52.034;5.554;2023-08-07T01:23:47;8.50;;;1.98;;
19026;SDS011;9646;52.034;5.554;2023-08-07T01:26:14;10.50;;;2.30;;
19026;SDS011;9646;52.034;5.554;2023-08-07T01:28:42;4.90;;;1.77;;
19026;SDS011;9646;52.034;5.554;2023-08-07T01:31:13;9.10;;;2.80;;
19026;SDS011;9646;52.034;5.554;2023-08-07T01:33:43;8.57;;;2.35;;
19026;SDS011;9646;52.034;5.554;2023-08-07T01:36:14;7.75;;;2.45;;
19026;SDS011;9646;52.034;5.554;2023-08-07T01:38:42;10.48;;;1.98;;
19026;SDS011;9646;52.034;5.554;2023-08-07T01:41:11;8.88;;;2.88;;
19026;SDS011;9646;52.034;5.554;2023-08-07T01:43:38;8.93;;;2.22;;
19026;SDS011;9646;52.034;5.554;2023-08-07T01:46:05;9.82;;;2.58;;
19026;SDS011;9646;52.034;5.554;2023-08-07T01:48:32;9.20;;;2.63;;
19026;SDS011;9646;52.034;5.554;2023-08-07T01:50:59;10.15;;;2.50;;
19026;SDS011;9646;52.034;5.554;2023-08-07T01:53:26;7.82;;;2.30;;
19026;SDS011;9646;52.034;5.554;2023-08-07T01:55:53;13.05;;;2.45;;
19026;SDS011;9646;52.034;5.554;2023-08-07T01:58:22;8.73;;;2.70;;
19026;SDS011;9646;52.034;5.554;2023-08-07T02:00:49;6.53;;;2.08;;
19026;SDS011;9646;52.034;5.554;2023-08-07T02:03:16;11.70;;;2.40;;
19026;SDS011;9646;52.034;5.554;2023-08-07T02:05:44;10.75;;;2.55;;
19026;SDS011;9646;52.034;5.554;2023-08-07T02:08:11;10.85;;;2.53;;
19026;SDS011;9646;52.034;5.554;2023-08-07T02:10:38;5.53;;;1.85;;
19026;SDS011;9646;52.034;5.554;2023-08-07T02:13:05;6.65;;;2.03;;
19026;SDS011;9646;52.034;5.554;2023-08-07T02:15:34;9.95;;;2.42;;
19026;SDS011;9646;52.034;5.554;2023-08-07T02:18:01;8.30;;;2.30;;
19026;SDS011;9646;52.034;5.554;2023-08-07T02:20:28;9.88;;;1.88;;
19026;SDS011;9646;52.034;5.554;2023-08-07T02:22:55;10.40;;;2.30;;
19026;SDS011;9646;52.034;5.554;2023-08-07T02:25:22;5.93;;;1.63;;
19026;SDS011;9646;52.034;5.554;2023-08-07T02:27:49;9.10;;;1.80;;
19026;SDS011;9646;52.034;5.554;2023-08-07T02:30:16;7.80;;;1.95;;
19026;SDS011;9646;52.034;5.554;2023-08-07T02:32:44;8.07;;;2.20;;
19026;SDS011;9646;52.034;5.554;2023-08-07T02:35:11;6.07;;;1.88;;
19026;SDS011;9646;52.034;5.554;2023-08-07T02:37:38;7.07;;;2.35;;
19026;SDS011;9646;52.034;5.554;2023-08-07T02:40:06;5.30;;;1.58;;
19026;SDS011;9646;52.034;5.554;2023-08-07T02:42:33;6.75;;;2.17;;
19026;SDS011;9646;52.034;5.554;2023-08-07T02:45:00;6.72;;;2.40;;
19026;SDS011;9646;52.034;5.554;2023-08-07T02:47:27;9.93;;;2.40;;
19026;SDS011;9646;52.034;5.554;2023-08-07T02:49:55;11.90;;;2.45;;
19026;SDS011;9646;52.034;5.554;2023-08-07T02:52:22;4.95;;;1.70;;
19026;SDS011;9646;52.034;5.554;2023-08-07T02:54:49;8.70;;;2.30;;
19026;SDS011;9646;52.034;5.554;2023-08-07T02:57:16;8.05;;;2.20;;
19026;SDS011;9646;52.034;5.554;2023-08-07T02:59:43;5.15;;;1.70;;
19026;SDS011;9646;52.034;5.554;2023-08-07T03:02:11;5.07;;;1.65;;
19026;SDS011;9646;52.034;5.554;2023-08-07T03:04:38;6.70;;;1.90;;
19026;SDS011;9646;52.034;5.554;2023-08-07T03:07:06;5.63;;;1.70;;
19026;SDS011;9646;52.034;5.554;2023-08-07T03:09:33;6.32;;;1.63;;
19026;SDS011;9646;52.034;5.554;2023-08-07T03:12:00;7.60;;;2.13;;
19026;SDS011;9646;52.034;5.554;2023-08-07T03:14:28;8.80;;;1.85;;
19026;SDS011;9646;52.034;5.554;2023-08-07T03:16:55;8.63;;;2.22;;
19026;SDS011;9646;52.034;5.554;2023-08-07T03:19:23;10.27;;;2.58;;
19026;SDS011;9646;52.034;5.554;2023-08-07T03:21:50;6.40;;;2.53;;
19026;SDS011;9646;52.034;5.554;2023-08-07T03:24:19;7.15;;;2.10;;
19026;SDS011;9646;52.034;5.554;2023-08-07T03:26:46;7.75;;;2.47;;
19026;SDS011;9646;52.034;5.554;2023-08-07T03:29:14;8.13;;;1.98;;
19026;SDS011;9646;52.034;5.554;2023-08-07T03:31:41;7.28;;;2.17;;
19026;SDS011;9646;52.034;5.554;2023-08-07T03:34:08;8.82;;;2.08;;
19026;SDS011;9646;52.034;5.554;2023-08-07T03:36:35;7.82;;;1.73;;
19026;SDS011;9646;52.034;5.554;2023-08-07T03:39:02;6.72;;;1.92;;
19026;SDS011;9646;52.034;5.554;2023-08-07T03:41:31;5.93;;;1.83;;
19026;SDS011;9646;52.034;5.554;2023-08-07T03:43:58;6.28;;;2.03;;
19026;SDS011;9646;52.034;5.554;2023-08-07T03:46:25;6.82;;;1.70;;
19026;SDS011;9646;52.034;5.554;2023-08-07T03:48:52;4.60;;;1.35;;
19026;SDS011;9646;52.034;5.554;2023-08-07T03:51:19;6.97;;;1.65;;
19026;SDS011;9646;52.034;5.554;2023-08-07T03:53:46;3.85;;;1.55;;
19026;SDS011;9646;52.034;5.554;2023-08-07T03:56:13;4.07;;;1.48;;
19026;SDS011;9646;52.034;5.554;2023-08-07T03:58:41;5.53;;;2.22;;
19026;SDS011;9646;52.034;5.554;2023-08-07T04:01:08;4.70;;;1.73;;
19026;SDS011;9646;52.034;5.554;2023-08-07T04:03:36;3.83;;;1.42;;
19026;SDS011;9646;52.034;5.554;2023-08-07T04:06:03;4.43;;;1.73;;
19026;SDS011;9646;52.034;5.554;2023-08-07T04:08:30;4.07;;;1.65;;
19026;SDS011;9646;52.034;5.554;2023-08-07T04:10:58;5.93;;;1.67;;
19026;SDS011;9646;52.034;5.554;2023-08-07T04:13:25;4.55;;;1.75;;
19026;SDS011;9646;52.034;5.554;2023-08-07T04:15:54;4.78;;;1.73;;
19026;SDS011;9646;52.034;5.554;2023-08-07T04:18:21;5.53;;;1.58;;
19026;SDS011;9646;52.034;5.554;2023-08-07T04:20:48;6.03;;;1.92;;
19026;SDS011;9646;52.034;5.554;2023-08-07T04:23:16;5.38;;;2.22;;
19026;SDS011;9646;52.034;5.554;2023-08-07T04:25:43;6.03;;;2.08;;
19026;SDS011;9646;52.034;5.554;2023-08-07T04:28:10;6.80;;;2.17;;
19026;SDS011;9646;52.034;5.554;2023-08-07T04:30:37;11.48;;;2.80;;
19026;SDS011;9646;52.034;5.554;2023-08-07T04:33:05;6.07;;;2.22;;
19026;SDS011;9646;52.034;5.554;2023-08-07T04:35:33;7.28;;;2.15;;
19026;SDS011;9646;52.034;5.554;2023-08-07T04:38:00;8.30;;;2.22;;
19026;SDS011;9646;52.034;5.554;2023-08-07T04:40:28;6.05;;;1.80;;
19026;SDS011;9646;52.034;5.554;2023-08-07T04:42:55;5.82;;;1.77;;
19026;SDS011;9646;52.034;5.554;2023-08-07T04:45:22;7.75;;;1.92;;
19026;SDS011;9646;52.034;5.554;2023-08-07T04:47:49;8.23;;;2.13;;
19026;SDS011;9646;52.034;5.554;2023-08-07T04:50:18;8.80;;;2.25;;
19026;SDS011;9646;52.034;5.554;2023-08-07T04:52:45;4.43;;;1.92;;
19026;SDS011;9646;52.034;5.554;2023-08-07T04:55:12;7.57;;;2.10;;
19026;SDS011;9646;52.034;5.554;2023-08-07T04:57:39;6.97;;;2.08;;
19026;SDS011;9646;52.034;5.554;2023-08-07T05:00:06;4.65;;;1.80;;
19026;SDS011;9646;52.034;5.554;2023-08-07T05:02:34;7.80;;;2.20;;
19026;SDS011;9646;52.034;5.554;2023-08-07T05:05:01;8.93;;;2.33;;
19026;SDS011;9646;52.034;5.554;2023-08-07T05:07:32;8.82;;;2.63;;
19026;SDS011;9646;52.034;5.554;2023-08-07T05:10:00;8.68;;;2.42;;
19026;SDS011;9646;52.034;5.554;2023-08-07T05:12:28;5.70;;;2.22;;
19026;SDS011;9646;52.034;5.554;2023-08-07T05:14:55;8.07;;;2.38;;
19026;SDS011;9646;52.034;5.554;2023-08-07T05:17:22;9.73;;;2.85;;
19026;SDS011;9646;52.034;5.554;2023-08-07T05:19:49;10.25;;;2.63;;
19026;SDS011;9646;52.034;5.554;2023-08-07T05:22:16;8.20;;;2.45;;
19026;SDS011;9646;52.034;5.554;2023-08-07T05:24:44;6.88;;;2.47;;
19026;SDS011;9646;52.034;5.554;2023-08-07T05:27:13;7.88;;;2.20;;
19026;SDS011;9646;52.034;5.554;2023-08-07T05:29:41;7.22;;;2.00;;
19026;SDS011;9646;52.034;5.554;2023-08-07T05:32:09;8.93;;;2.53;;
19026;SDS011;9646;52.034;5.554;2023-08-07T05:34:37;6.97;;;2.60;;
19026;SDS011;9646;52.034;5.554;2023-08-07T05:37:04;5.82;;;1.70;;
19026;SDS011;9646;52.034;5.554;2023-08-07T05:39:31;4.28;;;1.92;;
19026;SDS011;9646;52.034;5.554;2023-08-07T05:42:00;3.78;;;1.75;;
19026;SDS011;9646;52.034;5.554;2023-08-07T05:44:27;4.03;;;1.65;;
19026;SDS011;9646;52.034;5.554;2023-08-07T05:46:54;4.72;;;1.52;;
19026;SDS011;9646;52.034;5.554;2023-08-07T05:49:21;3.75;;;1.95;;
19026;SDS011;9646;52.034;5.554;2023-08-07T05:51:48;5.00;;;1.80;;
19026;SDS011;9646;52.034;5.554;2023-08-07T05:54:15;4.70;;;1.42;;
19026;SDS011;9646;52.034;5.554;2023-08-07T05:56:42;6.43;;;1.92;;
19026;SDS011;9646;52.034;5.554;2023-08-07T05:59:11;4.75;;;1.48;;
19026;SDS011;9646;52.034;5.554;2023-08-07T06:01:43;5.10;;;1.88;;
19026;SDS011;9646;52.034;5.554;2023-08-07T06:04:10;7.78;;;2.08;;
19026;SDS011;9646;52.034;5.554;2023-08-07T06:06:38;8.80;;;2.22;;
19026;SDS011;9646;52.034;5.554;2023-08-07T06:09:06;6.28;;;1.77;;
19026;SDS011;9646;52.034;5.554;2023-08-07T06:11:33;6.40;;;2.20;;
19026;SDS011;9646;52.034;5.554;2023-08-07T06:14:01;7.18;;;2.10;;
19026;SDS011;9646;52.034;5.554;2023-08-07T06:16:30;4.75;;;1.60;;
19026;SDS011;9646;52.034;5.554;2023-08-07T06:18:57;5.32;;;2.00;;
19026;SDS011;9646;52.034;5.554;2023-08-07T06:21:24;4.32;;;2.03;;
19026;SDS011;9646;52.034;5.554;2023-08-07T06:23:53;8.18;;;2.38;;
19026;SDS011;9646;52.034;5.554;2023-08-07T06:26:20;8.65;;;2.35;;
19026;SDS011;9646;52.034;5.554;2023-08-07T06:28:47;11.05;;;3.17;;
19026;SDS011;9646;52.034;5.554;2023-08-07T06:31:15;9.15;;;2.30;;
19026;SDS011;9646;52.034;5.554;2023-08-07T06:33:43;11.65;;;3.85;;
19026;SDS011;9646;52.034;5.554;2023-08-07T06:36:10;9.00;;;2.97;;
19026;SDS011;9646;52.034;5.554;2023-08-07T06:38:38;10.90;;;3.05;;
19026;SDS011;9646;52.034;5.554;2023-08-07T06:41:05;10.23;;;2.70;;
19026;SDS011;9646;52.034;5.554;2023-08-07T06:43:32;11.05;;;3.22;;
19026;SDS011;9646;52.034;5.554;2023-08-07T06:45:59;7.70;;;2.50;;
19026;SDS011;9646;52.034;5.554;2023-08-07T06:48:26;10.45;;;2.80;;
19026;SDS011;9646;52.034;5.554;2023-08-07T06:50:54;9.95;;;3.05;;
19026;SDS011;9646;52.034;5.554;2023-08-07T06:53:21;10.77;;;3.42;;
19026;SDS011;9646;52.034;5.554;2023-08-07T06:55:48;9.88;;;2.97;;
19026;SDS011;9646;52.034;5.554;2023-08-07T06:58:16;11.02;;;2.85;;
19026;SDS011;9646;52.034;5.554;2023-08-07T07:00:43;12.30;;;3.10;;
19026;SDS011;9646;52.034;5.554;2023-08-07T07:03:11;11.02;;;2.70;;
19026;SDS011;9646;52.034;5.554;2023-08-07T07:05:38;11.00;;;2.95;;
19026;SDS011;9646;52.034;5.554;2023-08-07T07:08:09;9.38;;;2.92;;
19026;SDS011;9646;52.034;5.554;2023-08-07T07:10:36;9.85;;;2.95;;
19026;SDS011;9646;52.034;5.554;2023-08-07T07:13:03;9.68;;;2.40;;
19026;SDS011;9646;52.034;5.554;2023-08-07T07:15:30;9.90;;;3.00;;
19026;SDS011;9646;52.034;5.554;2023-08-07T07:17:58;9.23;;;2.80;;
19026;SDS011;9646;52.034;5.554;2023-08-07T07:20:25;12.40;;;3.25;;
19026;SDS011;9646;52.034;5.554;2023-08-07T07:22:52;15.48;;;3.40;;
19026;SDS011;9646;52.034;5.554;2023-08-07T07:25:21;9.77;;;3.40;;
19026;SDS011;9646;52.034;5.554;2023-08-07T07:27:48;9.48;;;2.88;;
19026;SDS011;9646;52.034;5.554;2023-08-07T07:30:15;8.05;;;2.40;;
19026;SDS011;9646;52.034;5.554;2023-08-07T07:32:42;8.15;;;2.75;;
19026;SDS011;9646;52.034;5.554;2023-08-07T07:35:09;10.70;;;2.53;;
19026;SDS011;9646;52.034;5.554;2023-08-07T07:37:36;5.88;;;2.50;;
19026;SDS011;9646;52.034;5.554;2023-08-07T07:40:03;7.80;;;2.47;;
19026;SDS011;9646;52.034;5.554;2023-08-07T07:42:32;7.22;;;3.20;;
19026;SDS011;9646;52.034;5.554;2023-08-07T07:44:59;7.57;;;2.72;;
19026;SDS011;9646;52.034;5.554;2023-08-07T07:47:26;8.82;;;2.63;;
19026;SDS011;9646;52.034;5.554;2023-08-07T07:50:03;7.90;;;2.70;;
19026;SDS011;9646;52.034;5.554;2023-08-07T07:52:31;9.73;;;3.10;;
19026;SDS011;9646;52.034;5.554;2023-08-07T07:54:58;7.45;;;2.83;;
19026;SDS011;9646;52.034;5.554;2023-08-07T07:57:25;9.45;;;3.28;;
19026;SDS011;9646;52.034;5.554;2023-08-07T07:59:53;10.30;;;3.58;;
19026;SDS011;9646;52.034;5.554;2023-08-07T08:02:21;8.82;;;2.90;;
19026;SDS011;9646;52.034;5.554;2023-08-07T08:04:49;9.98;;;3.50;;
19026;SDS011;9646;52.034;5.554;2023-08-07T08:07:16;12.05;;;3.08;;
19026;SDS011;9646;52.034;5.554;2023-08-07T08:09:43;14.98;;;4.00;;
19026;SDS011;9646;52.034;5.554;2023-08-07T08:12:10;9.65;;;3.20;;
19026;SDS011;9646;52.034;5.554;2023-08-07T08:14:37;9.68;;;3.25;;
19026;SDS011;9646;52.034;5.554;2023-08-07T08:17:06;7.35;;;2.90;;
19026;SDS011;9646;52.034;5.554;2023-08-07T08:19:33;8.68;;;3.70;;
19026;SDS011;9646;52.034;5.554;2023-08-07T08:22:00;12.18;;;3.17;;
19026;SDS011;9646;52.034;5.554;2023-08-07T08:24:27;13.75;;;3.17;;
19026;SDS011;9646;52.034;5.554;2023-08-07T08:26:54;10.93;;;3.90;;
19026;SDS011;9646;52.034;5.554;2023-08-07T08:29:21;12.10;;;3.55;;
19026;SDS011;9646;52.034;5.554;2023-08-07T08:31:48;8.02;;;2.55;;
19026;SDS011;9646;52.034;5.554;2023-08-07T08:34:19;11.13;;;3.33;;
19026;SDS011;9646;52.034;5.554;2023-08-07T08:36:46;8.70;;;2.65;;
19026;SDS011;9646;52.034;5.554;2023-08-07T08:39:13;14.40;;;3.58;;
19026;SDS011;9646;52.034;5.554;2023-08-07T08:41:40;10.60;;;3.13;;
19026;SDS011;9646;52.034;5.554;2023-08-07T08:44:09;8.13;;;3.22;;
19026;SDS011;9646;52.034;5.554;2023-08-07T08:46:37;8.95;;;3.20;;
19026;SDS011;9646;52.034;5.554;2023-08-07T08:49:05;12.20;;;3.47;;
19026;SDS011;9646;52.034;5.554;2023-08-07T08:51:34;6.13;;;2.13;;
19026;SDS011;9646;52.034;5.554;2023-08-07T08:54:01;5.35;;;2.58;;
19026;SDS011;9646;52.034;5.554;2023-08-07T08:56:30;9.20;;;2.92;;
19026;SDS011;9646;52.034;5.554;2023-08-07T08:58:57;10.85;;;2.97;;
19026;SDS011;9646;52.034;5.554;2023-08-07T09:01:24;9.82;;;2.58;;
19026;SDS011;9646;52.034;5.554;2023-08-07T09:03:53;7.38;;;2.75;;
19026;SDS011;9646;52.034;5.554;2023-08-07T09:06:20;13.15;;;2.92;;
19026;SDS011;9646;52.034;5.554;2023-08-07T09:08:48;8.65;;;2.75;;
19026;SDS011;9646;52.034;5.554;2023-08-07T09:11:15;11.98;;;2.75;;
19026;SDS011;9646;52.034;5.554;2023-08-07T09:13:43;11.77;;;2.67;;
19026;SDS011;9646;52.034;5.554;2023-08-07T09:16:11;6.72;;;2.10;;
19026;SDS011;9646;52.034;5.554;2023-08-07T09:18:39;6.95;;;2.60;;
19026;SDS011;9646;52.034;5.554;2023-08-07T09:21:06;6.50;;;1.95;;
19026;SDS011;9646;52.034;5.554;2023-08-07T09:23:33;7.13;;;2.67;;
19026;SDS011;9646;52.034;5.554;2023-08-07T09:26:02;9.95;;;2.63;;
19026;SDS011;9646;52.034;5.554;2023-08-07T09:28:29;10.55;;;3.03;;
19026;SDS011;9646;52.034;5.554;2023-08-07T09:30:57;9.30;;;2.85;;
19026;SDS011;9646;52.034;5.554;2023-08-07T09:33:26;9.27;;;2.53;;
19026;SDS011;9646;52.034;5.554;2023-08-07T09:35:57;9.32;;;2.38;;
19026;SDS011;9646;52.034;5.554;2023-08-07T09:38:26;10.07;;;3.50;;
19026;SDS011;9646;52.034;5.554;2023-08-07T09:40:57;8.88;;;3.03;;
19026;SDS011;9646;52.034;5.554;2023-08-07T09:43:25;7.63;;;3.22;;
19026;SDS011;9646;52.034;5.554;2023-08-07T09:45:52;10.52;;;2.80;;
19026;SDS011;9646;52.034;5.554;2023-08-07T09:48:23;6.53;;;2.38;;
19026;SDS011;9646;52.034;5.554;2023-08-07T09:50:52;12.90;;;2.40;;
19026;SDS011;9646;52.034;5.554;2023-08-07T09:53:24;9.63;;;2.58;;
19026;SDS011;9646;52.034;5.554;2023-08-07T09:55:51;8.80;;;2.70;;
19026;SDS011;9646;52.034;5.554;2023-08-07T09:58:18;9.60;;;2.92;;
19026;SDS011;9646;52.034;5.554;2023-08-07T10:00:48;12.05;;;3.20;;
19026;SDS011;9646;52.034;5.554;2023-08-07T10:03:15;7.55;;;2.70;;
19026;SDS011;9646;52.034;5.554;2023-08-07T10:05:43;8.43;;;2.55;;
19026;SDS011;9646;52.034;5.554;2023-08-07T10:08:10;7.63;;;2.80;;
19026;SDS011;9646;52.034;5.554;2023-08-07T10:10:38;11.07;;;3.10;;
19026;SDS011;9646;52.034;5.554;2023-08-07T10:13:05;5.55;;;2.50;;
19026;SDS011;9646;52.034;5.554;2023-08-07T10:15:32;10.20;;;2.40;;
19026;SDS011;9646;52.034;5.554;2023-08-07T10:18:02;10.43;;;2.60;;
19026;SDS011;9646;52.034;5.554;2023-08-07T10:20:29;8.77;;;2.70;;
19026;SDS011;9646;52.034;5.554;2023-08-07T10:22:57;7.60;;;2.03;;
19026;SDS011;9646;52.034;5.554;2023-08-07T10:25:25;7.15;;;2.38;;
19026;SDS011;9646;52.034;5.554;2023-08-07T10:27:54;9.75;;;2.42;;
19026;SDS011;9646;52.034;5.554;2023-08-07T10:30:22;8.57;;;2.90;;
19026;SDS011;9646;52.034;5.554;2023-08-07T10:32:51;7.03;;;2.22;;
19026;SDS011;9646;52.034;5.554;2023-08-07T10:35:25;7.93;;;2.30;;
19026;SDS011;9646;52.034;5.554;2023-08-07T10:37:52;8.30;;;2.80;;
19026;SDS011;9646;52.034;5.554;2023-08-07T10:40:20;8.15;;;2.72;;
19026;SDS011;9646;52.034;5.554;2023-08-07T10:42:51;6.93;;;2.30;;
19026;SDS011;9646;52.034;5.554;2023-08-07T10:45:18;8.20;;;2.08;;
19026;SDS011;9646;52.034;5.554;2023-08-07T10:47:56;8.70;;;2.50;;
19026;SDS011;9646;52.034;5.554;2023-08-07T10:50:28;15.27;;;3.22;;
19026;SDS011;9646;52.034;5.554;2023-08-07T10:52:55;5.88;;;2.45;;
19026;SDS011;9646;52.034;5.554;2023-08-07T10:55:22;6.90;;;2.35;;
19026;SDS011;9646;52.034;5.554;2023-08-07T10:57:50;8.00;;;2.45;;
19026;SDS011;9646;52.034;5.554;2023-08-07T11:00:17;8.95;;;2.53;;
19026;SDS011;9646;52.034;5.554;2023-08-07T11:02:48;9.05;;;2.70;;
19026;SDS011;9646;52.034;5.554;2023-08-07T11:05:17;12.35;;;2.95;;
19026;SDS011;9646;52.034;5.554;2023-08-07T11:07:46;7.78;;;1.77;;
19026;SDS011;9646;52.034;5.554;2023-08-07T11:10:13;8.38;;;2.47;;
19026;SDS011;9646;52.034;5.554;2023-08-07T11:12:41;7.82;;;2.83;;
19026;SDS011;9646;52.034;5.554;2023-08-07T11:15:11;9.73;;;2.40;;
19026;SDS011;9646;52.034;5.554;2023-08-07T11:17:39;10.00;;;2.42;;
19026;SDS011;9646;52.034;5.554;2023-08-07T11:20:07;8.82;;;2.67;;
19026;SDS011;9646;52.034;5.554;2023-08-07T11:22:37;8.93;;;2.63;;
19026;SDS011;9646;52.034;5.554;2023-08-07T11:25:07;13.30;;;2.58;;
19026;SDS011;9646;52.034;5.554;2023-08-07T11:27:40;10.05;;;2.40;;
19026;SDS011;9646;52.034;5.554;2023-08-07T11:30:10;6.53;;;2.30;;
19026;SDS011;9646;52.034;5.554;2023-08-07T11:32:38;10.73;;;2.45;;
19026;SDS011;9646;52.034;5.554;2023-08-07T11:35:05;6.80;;;2.30;;
19026;SDS011;9646;52.034;5.554;2023-08-07T11:37:33;8.73;;;2.78;;
19026;SDS011;9646;52.034;5.554;2023-08-07T11:40:01;5.90;;;1.83;;
19026;SDS011;9646;52.034;5.554;2023-08-07T11:42:29;5.20;;;2.25;;
19026;SDS011;9646;52.034;5.554;2023-08-07T11:44:56;7.13;;;2.10;;
19026;SDS011;9646;52.034;5.554;2023-08-07T11:47:23;6.82;;;2.28;;
19026;SDS011;9646;52.034;5.554;2023-08-07T11:49:51;11.18;;;2.70;;
19026;SDS011;9646;52.034;5.554;2023-08-07T11:52:19;7.65;;;2.28;;
19026;SDS011;9646;52.034;5.554;2023-08-07T11:54:48;5.35;;;2.47;;
19026;SDS011;9646;52.034;5.554;2023-08-07T11:57:15;7.00;;;3.08;;
19026;SDS011;9646;52.034;5.554;2023-08-07T11:59:48;6.20;;;2.22;;
19026;SDS011;9646;52.034;5.554;2023-08-07T12:02:16;7.47;;;2.38;;
19026;SDS011;9646;52.034;5.554;2023-08-07T12:04:43;7.95;;;2.67;;
19026;SDS011;9646;52.034;5.554;2023-08-07T12:07:10;5.97;;;2.40;;
19026;SDS011;9646;52.034;5.554;2023-08-07T12:09:38;6.40;;;2.60;;
19026;SDS011;9646;52.034;5.554;2023-08-07T12:12:06;6.85;;;2.58;;
19026;SDS011;9646;52.034;5.554;2023-08-07T12:14:33;8.95;;;2.25;;
19026;SDS011;9646;52.034;5.554;2023-08-07T12:17:03;6.47;;;2.47;;
19026;SDS011;9646;52.034;5.554;2023-08-07T12:19:37;7.85;;;2.42;;
19026;SDS011;9646;52.034;5.554;2023-08-07T12:22:06;7.55;;;2.17;;
19026;SDS011;9646;52.034;5.554;2023-08-07T12:24:34;6.55;;;2.08;;
19026;SDS011;9646;52.034;5.554;2023-08-07T12:27:02;5.43;;;2.25;;
19026;SDS011;9646;52.034;5.554;2023-08-07T12:29:30;8.13;;;2.70;;
19026;SDS011;9646;52.034;5.554;2023-08-07T12:31:57;8.70;;;2.55;;
19026;SDS011;9646;52.034;5.554;2023-08-07T12:34:27;8.10;;;2.63;;
19026;SDS011;9646;52.034;5.554;2023-08-07T12:36:54;9.07;;;2.58;;
19026;SDS011;9646;52.034;5.554;2023-08-07T12:39:21;8.45;;;2.30;;
19026;SDS011;9646;52.034;5.554;2023-08-07T12:41:48;8.88;;;2.35;;
19026;SDS011;9646;52.034;5.554;2023-08-07T12:44:16;4.20;;;2.05;;
19026;SDS011;9646;52.034;5.554;2023-08-07T12:46:43;6.63;;;2.30;;
19026;SDS011;9646;52.034;5.554;2023-08-07T12:49:10;9.05;;;2.53;;
19026;SDS011;9646;52.034;5.554;2023-08-07T12:51:38;7.72;;;2.28;;
19026;SDS011;9646;52.034;5.554;2023-08-07T12:54:05;9.68;;;2.53;;
19026;SDS011;9646;52.034;5.554;2023-08-07T12:56:32;5.65;;;2.22;;
19026;SDS011;9646;52.034;5.554;2023-08-07T12:58:59;6.15;;;2.03;;
19026;SDS011;9646;52.034;5.554;2023-08-07T13:01:26;4.65;;;1.80;;
19026;SDS011;9646;52.034;5.554;2023-08-07T13:03:53;6.63;;;1.77;;
19026;SDS011;9646;52.034;5.554;2023-08-07T13:06:20;6.45;;;1.80;;
19026;SDS011;9646;52.034;5.554;2023-08-07T13:08:49;7.13;;;1.80;;
19026;SDS011;9646;52.034;5.554;2023-08-07T13:11:16;5.00;;;2.08;;
19026;SDS011;9646;52.034;5.554;2023-08-07T13:13:43;7.20;;;1.80;;
19026;SDS011;9646;52.034;5.554;2023-08-07T13:16:10;4.32;;;1.80;;
19026;SDS011;9646;52.034;5.554;2023-08-07T13:18:37;5.05;;;1.95;;
19026;SDS011;9646;52.034;5.554;2023-08-07T13:21:04;5.03;;;1.98;;
19026;SDS011;9646;52.034;5.554;2023-08-07T13:23:31;6.47;;;1.85;;
19026;SDS011;9646;52.034;5.554;2023-08-07T13:26:00;4.07;;;1.60;;
19026;SDS011;9646;52.034;5.554;2023-08-07T13:28:27;5.75;;;1.70;;
19026;SDS011;9646;52.034;5.554;2023-08-07T13:30:54;6.60;;;1.70;;
19026;SDS011;9646;52.034;5.554;2023-08-07T13:33:23;7.40;;;2.38;;
19026;SDS011;9646;52.034;5.554;2023-08-07T13:35:50;5.47;;;1.88;;
19026;SDS011;9646;52.034;5.554;2023-08-07T13:38:17;5.05;;;1.77;;
19026;SDS011;9646;52.034;5.554;2023-08-07T13:40:44;4.05;;;1.70;;
19026;SDS011;9646;52.034;5.554;2023-08-07T13:43:12;4.47;;;2.03;;
19026;SDS011;9646;52.034;5.554;2023-08-07T13:45:40;5.93;;;2.00;;
19026;SDS011;9646;52.034;5.554;2023-08-07T13:48:07;6.60;;;1.50;;
19026;SDS011;9646;52.034;5.554;2023-08-07T13:50:35;6.93;;;1.65;;
19026;SDS011;9646;52.034;5.554;2023-08-07T13:53:03;7.47;;;1.67;;
19026;SDS011;9646;52.034;5.554;2023-08-07T13:55:30;4.03;;;1.40;;
19026;SDS011;9646;52.034;5.554;2023-08-07T13:57:57;3.47;;;1.45;;
19026;SDS011;9646;52.034;5.554;2023-08-07T14:00:26;3.35;;;1.50;;
19026;SDS011;9646;52.034;5.554;2023-08-07T14:02:53;2.55;;;1.48;;
19026;SDS011;9646;52.034;5.554;2023-08-07T14:05:20;4.63;;;1.40;;
19026;SDS011;9646;52.034;5.554;2023-08-07T14:07:47;5.72;;;1.42;;
19026;SDS011;9646;52.034;5.554;2023-08-07T14:10:14;3.03;;;1.60;;
19026;SDS011;9646;52.034;5.554;2023-08-07T14:12:41;4.35;;;1.73;;
19026;SDS011;9646;52.034;5.554;2023-08-07T14:15:09;4.15;;;1.40;;
19026;SDS011;9646;52.034;5.554;2023-08-07T14:17:38;7.55;;;1.58;;
19026;SDS011;9646;52.034;5.554;2023-08-07T14:20:05;4.22;;;1.25;;
19026;SDS011;9646;52.034;5.554;2023-08-07T14:22:33;3.67;;;1.58;;
19026;SDS011;9646;52.034;5.554;2023-08-07T14:25:01;3.22;;;1.27;;
19026;SDS011;9646;52.034;5.554;2023-08-07T14:27:29;2.97;;;1.40;;
19026;SDS011;9646;52.034;5.554;2023-08-07T14:29:58;4.13;;;1.20;;
19026;SDS011;9646;52.034;5.554;2023-08-07T14:32:25;5.05;;;1.48;;
19026;SDS011;9646;52.034;5.554;2023-08-07T14:34:54;4.50;;;1.58;;
19026;SDS011;9646;52.034;5.554;2023-08-07T14:37:21;3.45;;;1.38;;
19026;SDS011;9646;52.034;5.554;2023-08-07T14:39:48;3.28;;;1.48;;
19026;SDS011;9646;52.034;5.554;2023-08-07T14:42:15;2.90;;;1.40;;
19026;SDS011;9646;52.034;5.554;2023-08-07T14:44:42;3.00;;;1.65;;
19026;SDS011;9646;52.034;5.554;2023-08-07T14:47:09;5.65;;;1.40;;
19026;SDS011;9646;52.034;5.554;2023-08-07T14:49:36;3.40;;;1.40;;
19026;SDS011;9646;52.034;5.554;2023-08-07T14:52:05;3.70;;;1.25;;
19026;SDS011;9646;52.034;5.554;2023-08-07T14:54:32;7.55;;;1.95;;
19026;SDS011;9646;52.034;5.554;2023-08-07T14:56:59;3.80;;;1.70;;
19026;SDS011;9646;52.034;5.554;2023-08-07T14:59:26;6.25;;;1.40;;
19026;SDS011;9646;52.034;5.554;2023-08-07T15:01:53;7.70;;;1.80;;
19026;SDS011;9646;52.034;5.554;2023-08-07T15:04:20;4.95;;;1.63;;